Terminal Aerodrome Forecast
Issued by NWS

Home | Current Version | Previous Version | Text Only | Print | Product List | Glossary On
Versions: 1 2 3 4 5 6 7 8 9 10 11 12 13 14 15
124
FTUS45 KPSR 302336
TAFBLH
TAF
KBLH 302336Z 3100/3124 23025G35KT 6SM BLDU SCT250
      TEMPO 3100/3104 23035G45KT 1SM BLDU
     FM310500 31024G34KT 6SM BLDU SKC=

USA.gov is the U.S. government's official web portal to all federal, state and local government web resources and services.